Bayle, Illinois
Current Conditions -  °F | °C
As of 5:35 PM on Saturday 25 Oct 2014 (Local Time) from K1H2 Reporting Station
Clear Clear  
Wind Chill: 73°   Ceiling: Unl
Heat Index: 73°   Visibility: 10mi
Dew Point: 47°   Wind: 3mph
Humidity: 39%   Direction: 260°W
Pressure: 29.99"   Gusts: NA
Location:  39.1031°N, 89.1042°W
Report Text: K1H2 252235Z AUTO 26003KT 10SM CLR 23/09 A2999 RMK AO2 T02300085
Loading
Personal Weather Stations






























Interactive Weather Map New forecast layout! Learn more

10-Day Weather Forecast

Advertisements
Track Severe Weather on mobile